sensor_id;sensor_type;location;lat;lon;timestamp;temperature;humidity
11399;DHT22;5755;48.116;11.608;2022-08-05T00:01:56;22.00;67.90
11399;DHT22;5755;48.116;11.608;2022-08-05T00:04:23;22.00;68.10
11399;DHT22;5755;48.116;11.608;2022-08-05T00:06:51;22.00;68.90
11399;DHT22;5755;48.116;11.608;2022-08-05T00:09:18;21.90;68.80
11399;DHT22;5755;48.116;11.608;2022-08-05T00:11:45;21.90;69.20
11399;DHT22;5755;48.116;11.608;2022-08-05T00:14:16;21.90;69.60
11399;DHT22;5755;48.116;11.608;2022-08-05T00:16:44;21.90;69.70
11399;DHT22;5755;48.116;11.608;2022-08-05T00:19:10;21.80;69.60
11399;DHT22;5755;48.116;11.608;2022-08-05T00:21:37;21.80;69.60
11399;DHT22;5755;48.116;11.608;2022-08-05T00:24:07;21.80;69.30
11399;DHT22;5755;48.116;11.608;2022-08-05T00:26:34;21.80;70.10
11399;DHT22;5755;48.116;11.608;2022-08-05T00:29:01;21.60;70.30
11399;DHT22;5755;48.116;11.608;2022-08-05T00:31:28;21.50;71.90
11399;DHT22;5755;48.116;11.608;2022-08-05T00:33:55;21.30;73.80
11399;DHT22;5755;48.116;11.608;2022-08-05T00:36:22;21.30;73.80
11399;DHT22;5755;48.116;11.608;2022-08-05T00:38:52;21.30;73.10
11399;DHT22;5755;48.116;11.608;2022-08-05T00:41:28;21.20;73.30
11399;DHT22;5755;48.116;11.608;2022-08-05T00:43:55;21.20;74.30
11399;DHT22;5755;48.116;11.608;2022-08-05T00:46:23;21.20;75.00
11399;DHT22;5755;48.116;11.608;2022-08-05T00:48:50;21.20;75.40
11399;DHT22;5755;48.116;11.608;2022-08-05T00:51:17;21.30;75.00
11399;DHT22;5755;48.116;11.608;2022-08-05T00:53:44;21.30;74.60
11399;DHT22;5755;48.116;11.608;2022-08-05T00:56:17;21.20;74.30
11399;DHT22;5755;48.116;11.608;2022-08-05T00:58:45;21.10;75.10
11399;DHT22;5755;48.116;11.608;2022-08-05T01:01:12;21.00;75.60
11399;DHT22;5755;48.116;11.608;2022-08-05T01:03:42;21.00;75.80
11399;DHT22;5755;48.116;11.608;2022-08-05T01:06:10;20.90;75.60
11399;DHT22;5755;48.116;11.608;2022-08-05T01:08:40;20.90;75.30
11399;DHT22;5755;48.116;11.608;2022-08-05T01:11:11;20.90;75.00
11399;DHT22;5755;48.116;11.608;2022-08-05T01:13:48;20.90;75.60
11399;DHT22;5755;48.116;11.608;2022-08-05T01:16:23;20.90;75.60
11399;DHT22;5755;48.116;11.608;2022-08-05T01:18:53;20.80;75.60
11399;DHT22;5755;48.116;11.608;2022-08-05T01:21:49;20.80;75.40
11399;DHT22;5755;48.116;11.608;2022-08-05T01:24:30;20.80;75.70
11399;DHT22;5755;48.116;11.608;2022-08-05T01:27:08;21.00;75.60
11399;DHT22;5755;48.116;11.608;2022-08-05T01:29:44;21.10;74.10
11399;DHT22;5755;48.116;11.608;2022-08-05T01:32:17;21.20;73.80
11399;DHT22;5755;48.116;11.608;2022-08-05T01:34:48;21.30;73.60
11399;DHT22;5755;48.116;11.608;2022-08-05T01:37:18;21.20;73.20
11399;DHT22;5755;48.116;11.608;2022-08-05T01:39:49;21.20;74.60
11399;DHT22;5755;48.116;11.608;2022-08-05T01:42:19;21.20;73.80
11399;DHT22;5755;48.116;11.608;2022-08-05T01:44:55;21.30;72.90
11399;DHT22;5755;48.116;11.608;2022-08-05T01:47:23;21.30;70.40
11399;DHT22;5755;48.116;11.608;2022-08-05T01:49:51;21.40;69.20
11399;DHT22;5755;48.116;11.608;2022-08-05T01:52:19;21.40;67.00
11399;DHT22;5755;48.116;11.608;2022-08-05T01:54:51;21.50;66.60
11399;DHT22;5755;48.116;11.608;2022-08-05T01:57:26;21.50;67.80
11399;DHT22;5755;48.116;11.608;2022-08-05T02:00:03;21.40;67.60
11399;DHT22;5755;48.116;11.608;2022-08-05T02:02:31;21.40;67.60
11399;DHT22;5755;48.116;11.608;2022-08-05T02:05:03;21.40;69.30
11399;DHT22;5755;48.116;11.608;2022-08-05T02:07:31;21.20;69.80
11399;DHT22;5755;48.116;11.608;2022-08-05T02:09:58;21.20;70.80
11399;DHT22;5755;48.116;11.608;2022-08-05T02:12:32;21.10;71.30
11399;DHT22;5755;48.116;11.608;2022-08-05T02:15:06;21.10;71.20
11399;DHT22;5755;48.116;11.608;2022-08-05T02:17:38;21.20;72.30
11399;DHT22;5755;48.116;11.608;2022-08-05T02:20:12;21.20;70.40
11399;DHT22;5755;48.116;11.608;2022-08-05T02:22:42;21.10;71.10
11399;DHT22;5755;48.116;11.608;2022-08-05T02:25:16;21.10;73.70
11399;DHT22;5755;48.116;11.608;2022-08-05T02:27:43;21.00;73.80
11399;DHT22;5755;48.116;11.608;2022-08-05T02:30:16;21.00;74.20
11399;DHT22;5755;48.116;11.608;2022-08-05T02:32:46;21.10;73.50
11399;DHT22;5755;48.116;11.608;2022-08-05T02:35:17;21.10;72.40
11399;DHT22;5755;48.116;11.608;2022-08-05T02:37:45;21.20;72.20
11399;DHT22;5755;48.116;11.608;2022-08-05T02:40:13;21.20;72.60
11399;DHT22;5755;48.116;11.608;2022-08-05T02:42:42;21.30;72.60
11399;DHT22;5755;48.116;11.608;2022-08-05T02:45:10;21.30;72.20
11399;DHT22;5755;48.116;11.608;2022-08-05T02:47:40;21.30;72.40
11399;DHT22;5755;48.116;11.608;2022-08-05T02:50:11;21.10;73.20
11399;DHT22;5755;48.116;11.608;2022-08-05T02:52:39;21.00;75.10
11399;DHT22;5755;48.116;11.608;2022-08-05T02:55:08;21.00;75.40
11399;DHT22;5755;48.116;11.608;2022-08-05T02:57:37;20.90;75.60
11399;DHT22;5755;48.116;11.608;2022-08-05T03:00:05;21.00;76.00
11399;DHT22;5755;48.116;11.608;2022-08-05T03:02:35;21.00;75.50
11399;DHT22;5755;48.116;11.608;2022-08-05T03:05:06;20.90;76.60
11399;DHT22;5755;48.116;11.608;2022-08-05T03:07:34;20.80;77.30
11399;DHT22;5755;48.116;11.608;2022-08-05T03:10:01;20.80;78.00
11399;DHT22;5755;48.116;11.608;2022-08-05T03:12:29;20.70;78.30
11399;DHT22;5755;48.116;11.608;2022-08-05T03:14:56;20.70;79.40
11399;DHT22;5755;48.116;11.608;2022-08-05T03:17:23;20.70;79.70
11399;DHT22;5755;48.116;11.608;2022-08-05T03:19:59;20.60;79.90
11399;DHT22;5755;48.116;11.608;2022-08-05T03:22:27;20.60;79.70
11399;DHT22;5755;48.116;11.608;2022-08-05T03:24:54;20.70;79.40
11399;DHT22;5755;48.116;11.608;2022-08-05T03:27:22;20.70;79.70
11399;DHT22;5755;48.116;11.608;2022-08-05T03:29:50;20.60;79.80
11399;DHT22;5755;48.116;11.608;2022-08-05T03:32:17;20.60;80.30
11399;DHT22;5755;48.116;11.608;2022-08-05T03:34:45;20.70;80.10
11399;DHT22;5755;48.116;11.608;2022-08-05T03:37:12;20.60;79.10
11399;DHT22;5755;48.116;11.608;2022-08-05T03:39:53;20.50;80.20
11399;DHT22;5755;48.116;11.608;2022-08-05T03:42:20;20.30;81.00
11399;DHT22;5755;48.116;11.608;2022-08-05T03:44:47;20.20;81.00
11399;DHT22;5755;48.116;11.608;2022-08-05T03:47:16;20.20;82.10
11399;DHT22;5755;48.116;11.608;2022-08-05T03:49:43;20.10;82.90
11399;DHT22;5755;48.116;11.608;2022-08-05T03:52:18;20.10;83.00
11399;DHT22;5755;48.116;11.608;2022-08-05T03:54:51;20.00;83.30
11399;DHT22;5755;48.116;11.608;2022-08-05T03:57:24;20.00;83.90
11399;DHT22;5755;48.116;11.608;2022-08-05T03:59:56;20.20;83.30
11399;DHT22;5755;48.116;11.608;2022-08-05T04:02:27;20.20;83.50
11399;DHT22;5755;48.116;11.608;2022-08-05T04:04:56;20.10;83.60
11399;DHT22;5755;48.116;11.608;2022-08-05T04:07:24;20.10;84.30
11399;DHT22;5755;48.116;11.608;2022-08-05T04:09:52;20.00;84.70
11399;DHT22;5755;48.116;11.608;2022-08-05T04:12:21;20.00;85.40
11399;DHT22;5755;48.116;11.608;2022-08-05T04:14:53;20.00;86.70
11399;DHT22;5755;48.116;11.608;2022-08-05T04:17:20;20.10;87.20
11399;DHT22;5755;48.116;11.608;2022-08-05T04:19:47;20.20;85.50
11399;DHT22;5755;48.116;11.608;2022-08-05T04:22:14;20.30;83.20
11399;DHT22;5755;48.116;11.608;2022-08-05T04:24:43;20.30;83.70
11399;DHT22;5755;48.116;11.608;2022-08-05T04:27:11;20.20;83.80
11399;DHT22;5755;48.116;11.608;2022-08-05T04:29:40;20.20;84.60
11399;DHT22;5755;48.116;11.608;2022-08-05T04:32:07;20.20;84.50
11399;DHT22;5755;48.116;11.608;2022-08-05T04:34:35;20.20;84.40
11399;DHT22;5755;48.116;11.608;2022-08-05T04:37:02;20.20;83.90
11399;DHT22;5755;48.116;11.608;2022-08-05T04:39:29;20.30;85.40
11399;DHT22;5755;48.116;11.608;2022-08-05T04:41:56;20.40;82.90
11399;DHT22;5755;48.116;11.608;2022-08-05T04:44:29;20.50;81.60
11399;DHT22;5755;48.116;11.608;2022-08-05T04:46:57;20.60;81.20
11399;DHT22;5755;48.116;11.608;2022-08-05T04:49:24;20.90;79.50
11399;DHT22;5755;48.116;11.608;2022-08-05T04:51:51;21.00;78.10
11399;DHT22;5755;48.116;11.608;2022-08-05T04:54:18;21.10;77.20
11399;DHT22;5755;48.116;11.608;2022-08-05T04:56:46;21.20;76.40
11399;DHT22;5755;48.116;11.608;2022-08-05T04:59:13;21.30;75.80
11399;DHT22;5755;48.116;11.608;2022-08-05T05:01:41;21.40;75.10
11399;DHT22;5755;48.116;11.608;2022-08-05T05:04:09;21.50;72.90
11399;DHT22;5755;48.116;11.608;2022-08-05T05:06:36;21.60;71.40
11399;DHT22;5755;48.116;11.608;2022-08-05T05:09:03;21.70;69.80
11399;DHT22;5755;48.116;11.608;2022-08-05T05:11:30;21.80;69.20
11399;DHT22;5755;48.116;11.608;2022-08-05T05:13:58;21.90;66.70
11399;DHT22;5755;48.116;11.608;2022-08-05T05:16:25;22.00;64.70
11399;DHT22;5755;48.116;11.608;2022-08-05T05:18:52;22.10;62.40
11399;DHT22;5755;48.116;11.608;2022-08-05T05:21:20;22.20;61.30
11399;DHT22;5755;48.116;11.608;2022-08-05T05:23:47;22.40;58.30
11399;DHT22;5755;48.116;11.608;2022-08-05T05:26:14;22.50;58.20
11399;DHT22;5755;48.116;11.608;2022-08-05T05:28:41;22.60;58.30
11399;DHT22;5755;48.116;11.608;2022-08-05T05:31:08;22.70;58.40
11399;DHT22;5755;48.116;11.608;2022-08-05T05:33:34;22.90;55.70
11399;DHT22;5755;48.116;11.608;2022-08-05T05:36:01;23.10;53.70
11399;DHT22;5755;48.116;11.608;2022-08-05T05:38:30;23.40;51.50
11399;DHT22;5755;48.116;11.608;2022-08-05T05:40:57;23.50;50.60
11399;DHT22;5755;48.116;11.608;2022-08-05T05:43:24;23.50;50.10
11399;DHT22;5755;48.116;11.608;2022-08-05T05:45:51;23.60;49.90
11399;DHT22;5755;48.116;11.608;2022-08-05T05:48:17;23.60;50.70
11399;DHT22;5755;48.116;11.608;2022-08-05T05:50:44;23.70;50.20
11399;DHT22;5755;48.116;11.608;2022-08-05T05:53:11;23.80;48.40
11399;DHT22;5755;48.116;11.608;2022-08-05T05:55:41;24.00;48.10
11399;DHT22;5755;48.116;11.608;2022-08-05T05:58:07;24.20;46.80
11399;DHT22;5755;48.116;11.608;2022-08-05T06:00:34;24.50;45.40
11399;DHT22;5755;48.116;11.608;2022-08-05T06:03:05;24.90;43.00
11399;DHT22;5755;48.116;11.608;2022-08-05T06:05:32;25.30;40.90
11399;DHT22;5755;48.116;11.608;2022-08-05T06:07:58;25.60;37.80
11399;DHT22;5755;48.116;11.608;2022-08-05T06:10:29;25.80;36.70
11399;DHT22;5755;48.116;11.608;2022-08-05T06:13:00;25.80;35.00
11399;DHT22;5755;48.116;11.608;2022-08-05T06:15:27;25.60;35.00
11399;DHT22;5755;48.116;11.608;2022-08-05T06:17:54;25.50;36.50
11399;DHT22;5755;48.116;11.608;2022-08-05T06:20:29;25.30;36.40
11399;DHT22;5755;48.116;11.608;2022-08-05T06:23:11;25.10;36.30
11399;DHT22;5755;48.116;11.608;2022-08-05T06:25:47;25.00;36.20
11399;DHT22;5755;48.116;11.608;2022-08-05T06:28:17;24.90;36.20
11399;DHT22;5755;48.116;11.608;2022-08-05T06:30:44;24.90;37.10
11399;DHT22;5755;48.116;11.608;2022-08-05T06:33:10;25.10;36.40
11399;DHT22;5755;48.116;11.608;2022-08-05T06:35:37;25.10;36.30
11399;DHT22;5755;48.116;11.608;2022-08-05T06:38:04;25.20;36.40
11399;DHT22;5755;48.116;11.608;2022-08-05T06:40:31;25.30;36.40
11399;DHT22;5755;48.116;11.608;2022-08-05T06:42:58;25.30;36.40
11399;DHT22;5755;48.116;11.608;2022-08-05T06:45:27;25.40;36.40
11399;DHT22;5755;48.116;11.608;2022-08-05T06:47:59;25.60;36.60
11399;DHT22;5755;48.116;11.608;2022-08-05T06:50:58;25.70;36.70
11399;DHT22;5755;48.116;11.608;2022-08-05T06:53:35;26.00;32.40
11399;DHT22;5755;48.116;11.608;2022-08-05T06:56:01;26.30;32.20
11399;DHT22;5755;48.116;11.608;2022-08-05T06:58:30;26.60;31.40
11399;DHT22;5755;48.116;11.608;2022-08-05T07:01:01;26.90;29.00
11399;DHT22;5755;48.116;11.608;2022-08-05T07:03:28;27.10;28.10
11399;DHT22;5755;48.116;11.608;2022-08-05T07:05:57;27.20;28.80
11399;DHT22;5755;48.116;11.608;2022-08-05T07:08:23;27.30;28.30
11399;DHT22;5755;48.116;11.608;2022-08-05T07:10:52;27.40;28.80
11399;DHT22;5755;48.116;11.608;2022-08-05T07:13:19;27.40;26.00
11399;DHT22;5755;48.116;11.608;2022-08-05T07:16:05;27.50;26.50
11399;DHT22;5755;48.116;11.608;2022-08-05T07:18:49;27.50;26.00
11399;DHT22;5755;48.116;11.608;2022-08-05T07:21:16;27.60;26.10
11399;DHT22;5755;48.116;11.608;2022-08-05T07:23:43;27.60;26.10
11399;DHT22;5755;48.116;11.608;2022-08-05T07:26:10;27.50;27.10
11399;DHT22;5755;48.116;11.608;2022-08-05T07:28:36;27.40;28.20
11399;DHT22;5755;48.116;11.608;2022-08-05T07:31:05;27.40;28.10
11399;DHT22;5755;48.116;11.608;2022-08-05T07:33:32;27.40;27.40
11399;DHT22;5755;48.116;11.608;2022-08-05T07:35:59;27.30;27.80
11399;DHT22;5755;48.116;11.608;2022-08-05T07:38:29;27.20;27.80
11399;DHT22;5755;48.116;11.608;2022-08-05T07:40:55;27.10;28.40
11399;DHT22;5755;48.116;11.608;2022-08-05T07:43:22;27.20;27.60
11399;DHT22;5755;48.116;11.608;2022-08-05T07:45:49;27.30;27.70
11399;DHT22;5755;48.116;11.608;2022-08-05T07:48:17;27.40;27.20
11399;DHT22;5755;48.116;11.608;2022-08-05T07:50:44;27.60;26.10
11399;DHT22;5755;48.116;11.608;2022-08-05T07:53:11;27.70;26.10
11399;DHT22;5755;48.116;11.608;2022-08-05T07:55:38;27.80;26.20
11399;DHT22;5755;48.116;11.608;2022-08-05T07:58:11;27.70;26.10
11399;DHT22;5755;48.116;11.608;2022-08-05T08:00:38;27.70;26.60
11399;DHT22;5755;48.116;11.608;2022-08-05T08:03:09;27.80;26.20
11399;DHT22;5755;48.116;11.608;2022-08-05T08:05:37;28.00;25.80
11399;DHT22;5755;48.116;11.608;2022-08-05T08:08:04;28.00;25.90
11399;DHT22;5755;48.116;11.608;2022-08-05T08:10:35;27.90;26.20
11399;DHT22;5755;48.116;11.608;2022-08-05T08:13:03;27.70;26.10
11399;DHT22;5755;48.116;11.608;2022-08-05T08:15:33;27.50;26.00
11399;DHT22;5755;48.116;11.608;2022-08-05T08:18:01;27.40;26.00
11399;DHT22;5755;48.116;11.608;2022-08-05T08:20:27;27.40;26.00
11399;DHT22;5755;48.116;11.608;2022-08-05T08:22:58;27.40;26.10
11399;DHT22;5755;48.116;11.608;2022-08-05T08:25:27;27.30;25.90
11399;DHT22;5755;48.116;11.608;2022-08-05T08:27:54;27.30;25.90
11399;DHT22;5755;48.116;11.608;2022-08-05T08:30:21;27.20;25.80
11399;DHT22;5755;48.116;11.608;2022-08-05T08:32:48;27.10;25.40
11399;DHT22;5755;48.116;11.608;2022-08-05T08:35:15;27.10;24.90
11399;DHT22;5755;48.116;11.608;2022-08-05T08:37:44;27.10;24.70
11399;DHT22;5755;48.116;11.608;2022-08-05T08:40:18;27.10;25.40
11399;DHT22;5755;48.116;11.608;2022-08-05T08:42:48;27.20;25.10
11399;DHT22;5755;48.116;11.608;2022-08-05T08:45:18;27.30;26.10
11399;DHT22;5755;48.116;11.608;2022-08-05T08:47:49;27.40;24.80
11399;DHT22;5755;48.116;11.608;2022-08-05T08:50:18;27.40;24.80
11399;DHT22;5755;48.116;11.608;2022-08-05T08:52:49;27.50;23.50
11399;DHT22;5755;48.116;11.608;2022-08-05T08:55:18;27.70;22.50
11399;DHT22;5755;48.116;11.608;2022-08-05T08:57:46;28.40;22.10
11399;DHT22;5755;48.116;11.608;2022-08-05T09:00:13;29.20;19.80
11399;DHT22;5755;48.116;11.608;2022-08-05T09:02:41;30.20;17.20
11399;DHT22;5755;48.116;11.608;2022-08-05T09:05:10;31.80;15.50
11399;DHT22;5755;48.116;11.608;2022-08-05T09:07:37;33.00;13.20
11399;DHT22;5755;48.116;11.608;2022-08-05T09:10:05;33.90;11.40
11399;DHT22;5755;48.116;11.608;2022-08-05T09:12:33;34.40;11.00
11399;DHT22;5755;48.116;11.608;2022-08-05T09:15:01;35.20;9.60
11399;DHT22;5755;48.116;11.608;2022-08-05T09:17:29;35.20;9.60
11399;DHT22;5755;48.116;11.608;2022-08-05T09:20:00;35.80;8.60
11399;DHT22;5755;48.116;11.608;2022-08-05T09:22:26;36.20;8.20
11399;DHT22;5755;48.116;11.608;2022-08-05T09:24:57;36.60;7.50
11399;DHT22;5755;48.116;11.608;2022-08-05T09:27:34;36.80;6.90
11399;DHT22;5755;48.116;11.608;2022-08-05T09:30:03;37.10;6.60
11399;DHT22;5755;48.116;11.608;2022-08-05T09:32:35;37.10;5.90
11399;DHT22;5755;48.116;11.608;2022-08-05T09:35:09;36.80;6.70
11399;DHT22;5755;48.116;11.608;2022-08-05T09:37:48;36.50;6.20
11399;DHT22;5755;48.116;11.608;2022-08-05T09:40:29;37.30;6.20
11399;DHT22;5755;48.116;11.608;2022-08-05T09:42:59;37.50;6.00
11399;DHT22;5755;48.116;11.608;2022-08-05T09:45:36;37.20;5.60
11399;DHT22;5755;48.116;11.608;2022-08-05T09:48:29;37.10;6.70
11399;DHT22;5755;48.116;11.608;2022-08-05T09:50:57;37.20;6.40
11399;DHT22;5755;48.116;11.608;2022-08-05T09:53:45;37.00;6.60
11399;DHT22;5755;48.116;11.608;2022-08-05T09:56:12;36.80;5.90
11399;DHT22;5755;48.116;11.608;2022-08-05T09:58:40;36.90;5.70
11399;DHT22;5755;48.116;11.608;2022-08-05T10:01:11;37.50;6.10
11399;DHT22;5755;48.116;11.608;2022-08-05T10:03:38;37.20;7.20
11399;DHT22;5755;48.116;11.608;2022-08-05T10:06:07;37.20;6.10
11399;DHT22;5755;48.116;11.608;2022-08-05T10:08:35;36.60;6.40
11399;DHT22;5755;48.116;11.608;2022-08-05T10:11:04;35.90;6.80
11399;DHT22;5755;48.116;11.608;2022-08-05T10:13:38;35.60;8.60
11399;DHT22;5755;48.116;11.608;2022-08-05T10:16:28;35.50;7.80
11399;DHT22;5755;48.116;11.608;2022-08-05T10:18:55;35.40;8.40
11399;DHT22;5755;48.116;11.608;2022-08-05T10:21:22;35.10;9.50
11399;DHT22;5755;48.116;11.608;2022-08-05T10:23:49;34.90;9.40
11399;DHT22;5755;48.116;11.608;2022-08-05T10:26:16;35.10;9.30
11399;DHT22;5755;48.116;11.608;2022-08-05T10:28:44;36.10;8.30
11399;DHT22;5755;48.116;11.608;2022-08-05T10:31:14;35.80;9.20
11399;DHT22;5755;48.116;11.608;2022-08-05T10:33:41;35.60;9.60
11399;DHT22;5755;48.116;11.608;2022-08-05T10:36:09;34.80;10.30
11399;DHT22;5755;48.116;11.608;2022-08-05T10:38:36;35.00;10.10
11399;DHT22;5755;48.116;11.608;2022-08-05T10:41:10;35.00;9.50
11399;DHT22;5755;48.116;11.608;2022-08-05T10:43:47;35.30;8.40
11399;DHT22;5755;48.116;11.608;2022-08-05T10:46:18;36.10;7.10
11399;DHT22;5755;48.116;11.608;2022-08-05T10:48:46;36.30;7.60
11399;DHT22;5755;48.116;11.608;2022-08-05T10:51:15;36.30;8.30
11399;DHT22;5755;48.116;11.608;2022-08-05T10:53:43;36.60;6.30
11399;DHT22;5755;48.116;11.608;2022-08-05T10:56:19;36.40;6.30
11399;DHT22;5755;48.116;11.608;2022-08-05T10:58:48;35.90;7.10
11399;DHT22;5755;48.116;11.608;2022-08-05T11:01:16;35.20;7.30
11399;DHT22;5755;48.116;11.608;2022-08-05T11:04:05;35.40;9.70
11399;DHT22;5755;48.116;11.608;2022-08-05T11:06:33;36.10;6.80
11399;DHT22;5755;48.116;11.608;2022-08-05T11:09:27;35.90;6.50
11399;DHT22;5755;48.116;11.608;2022-08-05T11:12:04;35.80;8.90
11399;DHT22;5755;48.116;11.608;2022-08-05T11:14:32;34.90;8.60
11399;DHT22;5755;48.116;11.608;2022-08-05T11:17:36;34.30;11.40
11399;DHT22;5755;48.116;11.608;2022-08-05T11:23:41;33.40;11.80
11399;DHT22;5755;48.116;11.608;2022-08-05T11:26:19;32.90;12.70
11399;DHT22;5755;48.116;11.608;2022-08-05T11:28:48;32.50;12.20
11399;DHT22;5755;48.116;11.608;2022-08-05T11:31:29;32.50;12.20
11399;DHT22;5755;48.116;11.608;2022-08-05T11:34:03;32.20;13.70
11399;DHT22;5755;48.116;11.608;2022-08-05T11:36:49;32.20;12.80
11399;DHT22;5755;48.116;11.608;2022-08-05T11:39:45;32.30;11.90
11399;DHT22;5755;48.116;11.608;2022-08-05T11:42:15;32.10;13.30
11399;DHT22;5755;48.116;11.608;2022-08-05T11:44:42;32.00;13.30
11399;DHT22;5755;48.116;11.608;2022-08-05T11:47:11;31.50;14.30
11399;DHT22;5755;48.116;11.608;2022-08-05T11:49:40;31.20;15.80
11399;DHT22;5755;48.116;11.608;2022-08-05T11:52:07;31.00;15.50
11399;DHT22;5755;48.116;11.608;2022-08-05T11:54:35;31.00;15.10
11399;DHT22;5755;48.116;11.608;2022-08-05T11:57:04;31.30;14.20
11399;DHT22;5755;48.116;11.608;2022-08-05T11:59:31;31.50;13.90
11399;DHT22;5755;48.116;11.608;2022-08-05T12:02:00;31.30;15.10
11399;DHT22;5755;48.116;11.608;2022-08-05T12:04:28;31.20;14.90
11399;DHT22;5755;48.116;11.608;2022-08-05T12:07:05;31.30;14.80
11399;DHT22;5755;48.116;11.608;2022-08-05T12:09:35;31.50;13.90
11399;DHT22;5755;48.116;11.608;2022-08-05T12:12:03;31.50;13.50
11399;DHT22;5755;48.116;11.608;2022-08-05T12:14:36;31.40;13.70
11399;DHT22;5755;48.116;11.608;2022-08-05T12:17:06;31.30;14.10
11399;DHT22;5755;48.116;11.608;2022-08-05T12:19:40;31.40;14.40
11399;DHT22;5755;48.116;11.608;2022-08-05T12:22:08;31.50;13.20
11399;DHT22;5755;48.116;11.608;2022-08-05T12:24:39;31.50;14.20
11399;DHT22;5755;48.116;11.608;2022-08-05T12:27:07;31.70;14.40
11399;DHT22;5755;48.116;11.608;2022-08-05T12:29:41;31.90;13.90
11399;DHT22;5755;48.116;11.608;2022-08-05T12:32:08;32.10;12.40
11399;DHT22;5755;48.116;11.608;2022-08-05T12:34:42;32.00;13.20
11399;DHT22;5755;48.116;11.608;2022-08-05T12:37:10;31.60;12.60
11399;DHT22;5755;48.116;11.608;2022-08-05T12:39:37;31.80;12.70
11399;DHT22;5755;48.116;11.608;2022-08-05T12:42:18;31.60;12.70
11399;DHT22;5755;48.116;11.608;2022-08-05T12:44:45;31.60;13.60
11399;DHT22;5755;48.116;11.608;2022-08-05T12:47:26;31.70;13.00
11399;DHT22;5755;48.116;11.608;2022-08-05T12:49:54;31.80;12.90
11399;DHT22;5755;48.116;11.608;2022-08-05T12:52:22;31.70;13.30
11399;DHT22;5755;48.116;11.608;2022-08-05T12:54:49;31.70;13.50
11399;DHT22;5755;48.116;11.608;2022-08-05T12:57:17;32.00;13.90
11399;DHT22;5755;48.116;11.608;2022-08-05T12:59:47;32.00;14.00
11399;DHT22;5755;48.116;11.608;2022-08-05T13:02:19;32.00;13.90
11399;DHT22;5755;48.116;11.608;2022-08-05T13:04:48;32.10;13.60
11399;DHT22;5755;48.116;11.608;2022-08-05T13:07:16;32.20;12.10
11399;DHT22;5755;48.116;11.608;2022-08-05T13:09:50;31.90;12.10
11399;DHT22;5755;48.116;11.608;2022-08-05T13:12:24;32.00;13.60
11399;DHT22;5755;48.116;11.608;2022-08-05T13:14:54;32.00;13.80
11399;DHT22;5755;48.116;11.608;2022-08-05T13:17:24;31.80;13.70
11399;DHT22;5755;48.116;11.608;2022-08-05T13:19:58;31.50;14.20
11399;DHT22;5755;48.116;11.608;2022-08-05T13:22:25;31.20;14.80
11399;DHT22;5755;48.116;11.608;2022-08-05T13:24:54;31.00;15.00
11399;DHT22;5755;48.116;11.608;2022-08-05T13:27:26;30.80;13.80
11399;DHT22;5755;48.116;11.608;2022-08-05T13:29:53;30.70;16.10
11399;DHT22;5755;48.116;11.608;2022-08-05T13:32:20;30.70;15.70
11399;DHT22;5755;48.116;11.608;2022-08-05T13:34:47;31.00;16.00
11399;DHT22;5755;48.116;11.608;2022-08-05T13:37:17;31.10;16.80
11399;DHT22;5755;48.116;11.608;2022-08-05T13:39:45;31.20;14.80
11399;DHT22;5755;48.116;11.608;2022-08-05T13:42:13;31.40;14.00
11399;DHT22;5755;48.116;11.608;2022-08-05T13:44:40;31.40;14.20
11399;DHT22;5755;48.116;11.608;2022-08-05T13:47:11;31.50;13.80
11399;DHT22;5755;48.116;11.608;2022-08-05T13:49:38;31.60;14.00
11399;DHT22;5755;48.116;11.608;2022-08-05T13:52:09;31.70;14.00
11399;DHT22;5755;48.116;11.608;2022-08-05T13:54:47;31.60;15.20
11399;DHT22;5755;48.116;11.608;2022-08-05T13:57:30;31.70;13.70
11399;DHT22;5755;48.116;11.608;2022-08-05T13:59:57;31.80;12.80
11399;DHT22;5755;48.116;11.608;2022-08-05T14:02:29;31.60;13.30
11399;DHT22;5755;48.116;11.608;2022-08-05T14:04:56;31.50;14.20
11399;DHT22;5755;48.116;11.608;2022-08-05T14:07:41;31.40;15.20
11399;DHT22;5755;48.116;11.608;2022-08-05T14:10:13;31.40;15.60
11399;DHT22;5755;48.116;11.608;2022-08-05T14:12:42;31.40;15.90
11399;DHT22;5755;48.116;11.608;2022-08-05T14:15:09;31.50;14.50
11399;DHT22;5755;48.116;11.608;2022-08-05T14:17:36;31.60;14.80
11399;DHT22;5755;48.116;11.608;2022-08-05T14:20:04;31.80;14.20
11399;DHT22;5755;48.116;11.608;2022-08-05T14:22:32;31.90;13.70
11399;DHT22;5755;48.116;11.608;2022-08-05T14:24:59;32.00;13.10
11399;DHT22;5755;48.116;11.608;2022-08-05T14:27:26;31.90;13.70
11399;DHT22;5755;48.116;11.608;2022-08-05T14:29:54;31.70;13.50
11399;DHT22;5755;48.116;11.608;2022-08-05T14:32:21;31.70;13.30
11399;DHT22;5755;48.116;11.608;2022-08-05T14:34:47;31.80;14.00
11399;DHT22;5755;48.116;11.608;2022-08-05T14:37:14;31.80;13.60
11399;DHT22;5755;48.116;11.608;2022-08-05T14:39:53;31.90;13.80
11399;DHT22;5755;48.116;11.608;2022-08-05T14:42:20;32.00;15.00
11399;DHT22;5755;48.116;11.608;2022-08-05T14:44:47;32.00;14.40
11399;DHT22;5755;48.116;11.608;2022-08-05T14:47:16;31.80;13.30
11399;DHT22;5755;48.116;11.608;2022-08-05T14:49:43;31.70;13.10
11399;DHT22;5755;48.116;11.608;2022-08-05T14:52:09;31.50;13.90
11399;DHT22;5755;48.116;11.608;2022-08-05T14:54:47;31.40;13.60
11399;DHT22;5755;48.116;11.608;2022-08-05T14:57:14;31.50;14.20
11399;DHT22;5755;48.116;11.608;2022-08-05T14:59:40;31.30;13.30
11399;DHT22;5755;48.116;11.608;2022-08-05T15:02:07;31.30;13.40
11399;DHT22;5755;48.116;11.608;2022-08-05T15:04:35;31.20;13.40
11399;DHT22;5755;48.116;11.608;2022-08-05T15:07:02;31.20;13.90
11399;DHT22;5755;48.116;11.608;2022-08-05T15:09:41;31.30;12.90
11399;DHT22;5755;48.116;11.608;2022-08-05T15:12:11;31.20;13.50
11399;DHT22;5755;48.116;11.608;2022-08-05T15:14:47;31.00;13.90
11399;DHT22;5755;48.116;11.608;2022-08-05T15:17:14;31.10;14.00
11399;DHT22;5755;48.116;11.608;2022-08-05T15:19:42;31.10;14.50
11399;DHT22;5755;48.116;11.608;2022-08-05T15:22:09;31.10;14.40
11399;DHT22;5755;48.116;11.608;2022-08-05T15:24:35;31.00;14.10
11399;DHT22;5755;48.116;11.608;2022-08-05T15:27:05;31.00;14.70
11399;DHT22;5755;48.116;11.608;2022-08-05T15:29:32;31.00;15.10
11399;DHT22;5755;48.116;11.608;2022-08-05T15:31:59;31.00;14.80
11399;DHT22;5755;48.116;11.608;2022-08-05T15:34:29;31.00;14.20
11399;DHT22;5755;48.116;11.608;2022-08-05T15:37:00;30.90;13.90
11399;DHT22;5755;48.116;11.608;2022-08-05T15:39:27;30.90;14.20
11399;DHT22;5755;48.116;11.608;2022-08-05T15:41:54;30.90;15.30
11399;DHT22;5755;48.116;11.608;2022-08-05T15:44:21;31.00;15.30
11399;DHT22;5755;48.116;11.608;2022-08-05T15:46:47;31.00;14.90
11399;DHT22;5755;48.116;11.608;2022-08-05T15:49:14;30.90;14.50
11399;DHT22;5755;48.116;11.608;2022-08-05T15:51:41;30.90;14.60
11399;DHT22;5755;48.116;11.608;2022-08-05T15:54:09;30.80;15.30